Terminal Aerodrome Forecast
Issued by NWS

Home | Current Version | Previous Version | Graphics & Text | Print | Product List | Glossary On
Versions: 1 2 3 4 5 6 7 8 9 10 11 12 13
223
FTUS43 KBIS 181722
TAFJMS
TAF
KJMS 181722Z 1818/1918 27008KT P6SM OVC250
     FM182200 23008KT P6SM BKN250
     FM191300 26008KT P6SM BKN200
     FM191500 29010KT P6SM BKN200=

USA.gov is the U.S. government's official web portal to all federal, state and local government web resources and services.